Time;durP1;ratioP1;P1;durP2;ratioP2;P2;SDS_P1;SDS_P2;PMS_P1;PMS_P2;Temp;Humidity;BMP_temperature;BMP_pressure;BME280_temperature;BME280_humidity;BME280_pressure;Samples;Min_cycle;Max_cycle;Signal;HPM_P1;HPM_P2
2023/08/02 00:02:04;;;;;;;7.63;2.80;;;;;;;21.55;66.40;100131.06;5008851;28;20073;-47
2023/08/02 00:04:29;;;;;;;6.50;2.88;;;;;;;21.18;67.68;100115.88;5009023;28;20107;-43
2023/08/02 00:06:54;;;;;;;8.13;2.95;;;;;;;21.44;67.00;100112.97;5010797;28;20033;-43
2023/08/02 00:09:20;;;;;;;6.68;2.70;;;;;;;21.43;66.39;100106.81;5012741;28;20030;-44
2023/08/02 00:11:45;;;;;;;8.02;3.08;;;;;;;21.40;66.50;100112.28;5011947;28;20492;-43
2023/08/02 00:14:10;;;;;;;9.38;2.92;;;;;;;21.41;66.56;100110.44;5012585;28;20039;-44
2023/08/02 00:16:35;;;;;;;7.63;3.00;;;;;;;21.16;67.16;100101.84;5012047;28;20026;-43
2023/08/02 00:19:02;;;;;;;9.32;3.30;;;;;;;21.18;67.29;100115.88;5012314;28;20037;-43
2023/08/02 00:21:27;;;;;;;11.50;2.88;;;;;;;21.22;66.97;100109.53;5011815;28;20034;-43
2023/08/02 00:23:53;;;;;;;9.57;2.90;;;;;;;21.15;67.36;100105.38;5012283;28;20034;-45
2023/08/02 00:26:18;;;;;;;8.32;2.83;;;;;;;20.92;68.12;100107.19;5012254;28;20040;-44
2023/08/02 00:28:44;;;;;;;8.23;2.60;;;;;;;21.04;67.68;100097.88;5011855;28;20515;-44
2023/08/02 00:31:09;;;;;;;9.05;3.00;;;;;;;20.91;68.23;100113.44;5012435;28;20026;-44
2023/08/02 00:33:34;;;;;;;8.65;2.90;;;;;;;20.86;68.89;100106.59;5011310;28;20041;-44
2023/08/02 00:35:59;;;;;;;9.82;2.70;;;;;;;20.79;69.40;100089.22;5012317;28;20037;-44
2023/08/02 00:38:25;;;;;;;10.00;2.60;;;;;;;20.81;69.34;100090.88;5012403;28;20058;-44
2023/08/02 00:40:50;;;;;;;9.50;2.90;;;;;;;20.94;68.66;100093.88;5012033;28;20030;-44
2023/08/02 00:43:16;;;;;;;7.50;2.70;;;;;;;20.90;68.98;100082.56;5011802;28;20038;-46
2023/08/02 00:45:42;;;;;;;9.43;2.63;;;;;;;20.96;68.80;100077.00;5011916;28;20070;-48
2023/08/02 00:48:07;;;;;;;5.07;2.50;;;;;;;21.15;68.16;100095.69;5012109;28;20511;-45
2023/08/02 00:50:34;;;;;;;6.97;2.70;;;;;;;21.22;67.84;100096.28;5011509;28;20082;-45
2023/08/02 00:53:00;;;;;;;8.13;2.75;;;;;;;21.20;67.97;100085.75;5011522;28;20041;-44
2023/08/02 00:55:26;;;;;;;7.60;2.78;;;;;;;21.22;67.96;100088.34;5011920;28;20084;-45
2023/08/02 00:57:51;;;;;;;7.10;2.95;;;;;;;21.00;68.88;100083.03;5011698;28;20042;-44
2023/08/02 01:00:17;;;;;;;9.00;2.70;;;;;;;21.16;68.12;100078.00;5011981;28;20120;-46
2023/08/02 01:02:42;;;;;;;8.18;2.97;;;;;;;21.13;68.43;100075.41;5010489;28;20142;-44
2023/08/02 01:05:07;;;;;;;9.57;2.78;;;;;;;21.25;68.16;100074.94;5011603;28;20034;-44
2023/08/02 01:07:40;;;;;;;8.13;3.00;;;;;;;20.93;69.68;100074.47;5011550;28;20041;-45
2023/08/02 01:10:21;;;;;;;9.77;2.67;;;;;;;21.25;68.27;100069.63;5011758;28;20118;-45
2023/08/02 01:12:52;;;;;;;6.65;2.67;;;;;;;21.31;68.21;100061.41;5010630;28;20394;-44
2023/08/02 01:15:18;;;;;;;9.45;2.72;;;;;;;21.44;67.64;100058.16;5011625;28;20096;-46
2023/08/02 01:17:43;;;;;;;8.68;2.80;;;;;;;21.30;67.95;100057.88;5010678;28;20435;-47
2023/08/02 01:20:09;;;;;;;6.32;2.55;;;;;;;21.38;67.57;100049.59;5011168;28;20555;-43
2023/08/02 01:22:35;;;;;;;7.40;2.90;;;;;;;21.39;67.41;100049.56;5010684;28;20408;-43
2023/08/02 01:25:01;;;;;;;8.48;2.60;;;;;;;21.40;67.47;100043.31;5011322;28;20026;-45
2023/08/02 01:27:52;;;;;;;6.78;2.42;;;;;;;21.44;67.24;100046.69;5011100;28;20030;-45
2023/08/02 01:30:20;;;;;;;8.60;2.78;;;;;;;21.36;67.68;100032.91;5011473;28;20108;-47
2023/08/02 01:32:46;;;;;;;8.15;2.55;;;;;;;21.37;67.48;100038.13;5010674;28;20029;-49
2023/08/02 01:35:12;;;;;;;7.95;2.80;;;;;;;21.33;67.69;100035.69;5011561;28;20563;-45
2023/08/02 01:37:39;;;;;;;11.82;2.95;;;;;;;21.23;67.55;100029.06;5011216;28;20458;-42
2023/08/02 01:40:05;;;;;;;9.60;2.85;;;;;;;21.26;67.84;100013.91;5011158;28;20030;-45
2023/08/02 01:42:31;;;;;;;10.40;3.05;;;;;;;21.32;67.53;100013.63;5010176;28;20088;-46
2023/08/02 01:44:56;;;;;;;8.23;2.78;;;;;;;21.16;67.85;100017.03;5011236;28;20046;-43
2023/08/02 01:47:21;;;;;;;9.55;3.03;;;;;;;21.22;67.70;100008.81;5011495;28;20073;-46
2023/08/02 01:49:46;;;;;;;9.38;2.88;;;;;;;21.07;68.19;100002.34;5011037;28;20430;-46
2023/08/02 01:52:12;;;;;;;11.38;2.90;;;;;;;21.24;67.65;99997.19;5011411;28;20038;-44
2023/08/02 01:54:37;;;;;;;11.02;2.88;;;;;;;21.28;67.43;99993.50;5010758;28;20030;-44
2023/08/02 01:57:03;;;;;;;8.38;2.63;;;;;;;21.38;66.68;99983.31;5011586;28;20037;-42
2023/08/02 01:59:28;;;;;;;8.18;2.58;;;;;;;21.35;66.75;99988.75;5010536;28;20045;-42
2023/08/02 02:01:53;;;;;;;10.05;2.92;;;;;;;21.30;66.94;99975.69;5010727;28;20059;-45
2023/08/02 02:04:19;;;;;;;8.00;2.88;;;;;;;21.30;67.52;99961.59;5010627;28;20034;-44
2023/08/02 02:06:44;;;;;;;9.73;2.92;;;;;;;21.29;67.49;99947.47;5010376;28;20041;-43
2023/08/02 02:09:09;;;;;;;6.35;2.72;;;;;;;21.31;67.35;99936.78;5009395;28;20124;-46
2023/08/02 02:11:35;;;;;;;6.72;2.53;;;;;;;21.24;67.72;99935.34;5009600;28;20034;-49
2023/08/02 02:14:00;;;;;;;5.70;2.58;;;;;;;21.23;67.92;99939.78;5010500;28;20025;-43
2023/08/02 02:16:25;;;;;;;8.90;2.90;;;;;;;21.04;68.75;99944.19;5010733;28;20527;-43
2023/08/02 02:18:51;;;;;;;10.82;2.70;;;;;;;21.07;68.64;99933.44;5010166;28;20433;-44
2023/08/02 02:21:16;;;;;;;8.52;3.03;;;;;;;20.86;69.49;99926.44;5011002;28;20029;-43
2023/08/02 02:23:41;;;;;;;8.82;3.30;;;;;;;20.73;69.69;99909.34;5010552;28;20037;-43
2023/08/02 02:26:07;;;;;;;7.43;2.50;;;;;;;20.75;69.88;99913.63;5011097;28;20040;-43
2023/08/02 02:28:32;;;;;;;7.07;2.65;;;;;;;20.82;69.73;99901.84;5010552;28;20061;-42
2023/08/02 02:30:57;;;;;;;5.72;2.63;;;;;;;20.86;69.63;99902.59;5010128;28;20096;-45
2023/08/02 02:33:23;;;;;;;7.70;2.50;;;;;;;20.88;69.17;99898.06;5010293;28;20062;-43
2023/08/02 02:35:48;;;;;;;6.78;2.40;;;;;;;20.87;69.39;99891.03;5010688;28;20034;-43
2023/08/02 02:38:13;;;;;;;6.53;2.50;;;;;;;20.78;69.69;99891.47;5010954;28;20488;-42
2023/08/02 02:40:39;;;;;;;6.20;2.42;;;;;;;20.63;70.35;99891.19;5010568;28;20124;-42
2023/08/02 02:43:04;;;;;;;7.10;2.67;;;;;;;20.73;69.98;99896.97;5009560;28;20030;-43
2023/08/02 02:45:29;;;;;;;9.32;2.60;;;;;;;20.77;69.76;99901.19;5009550;28;20386;-46
2023/08/02 02:47:55;;;;;;;8.15;2.50;;;;;;;20.77;69.65;99895.91;5010116;28;20033;-43
2023/08/02 02:50:20;;;;;;;8.00;2.58;;;;;;;20.72;69.98;99897.03;5009773;28;20378;-46
2023/08/02 02:52:45;;;;;;;8.57;2.88;;;;;;;20.72;70.25;99897.91;5009011;28;20049;-44
2023/08/02 02:55:11;;;;;;;8.57;2.70;;;;;;;20.80;70.04;99895.75;5009705;28;20030;-45
2023/08/02 02:57:36;;;;;;;6.38;2.30;;;;;;;20.85;70.26;99879.69;5009444;28;20045;-46
2023/08/02 03:00:02;;;;;;;12.20;2.88;;;;;;;20.84;70.01;99870.00;5009731;28;20045;-44
2023/08/02 03:02:28;;;;;;;7.10;2.50;;;;;;;20.90;69.85;99861.78;5008871;28;20480;-48
2023/08/02 03:04:54;;;;;;;8.57;2.40;;;;;;;20.89;70.01;99852.97;5009971;28;20030;-44
2023/08/02 03:07:19;;;;;;;7.93;2.40;;;;;;;20.80;70.20;99836.63;5009860;28;20049;-45
2023/08/02 03:09:44;;;;;;;7.70;2.58;;;;;;;20.51;71.59;99819.38;5009207;28;20121;-49
2023/08/02 03:12:10;;;;;;;7.20;2.50;;;;;;;20.70;70.56;99816.78;5009219;28;20246;-45
2023/08/02 03:14:35;;;;;;;8.30;2.50;;;;;;;20.43;71.75;99809.09;5009006;28;20037;-45
2023/08/02 03:17:00;;;;;;;5.55;2.25;;;;;;;20.63;71.17;99800.28;5009858;28;20034;-46
2023/08/02 03:19:26;;;;;;;6.88;2.60;;;;;;;20.83;70.51;99812.66;5009801;28;20125;-45
2023/08/02 03:21:51;;;;;;;7.15;2.40;;;;;;;20.83;69.95;99802.06;5007693;28;20030;-47
2023/08/02 03:24:16;;;;;;;8.88;3.05;;;;;;;20.84;70.21;99793.19;5009357;28;20045;-45
2023/08/02 03:26:42;;;;;;;9.35;2.78;;;;;;;20.64;70.96;99794.06;5009025;28;20037;-43
2023/08/02 03:29:07;;;;;;;7.47;2.75;;;;;;;20.70;70.72;99783.19;5009451;28;20042;-43
2023/08/02 03:31:32;;;;;;;7.32;2.65;;;;;;;20.72;70.51;99770.75;5008618;28;20510;-43
2023/08/02 03:33:58;;;;;;;8.32;2.58;;;;;;;20.96;69.90;99779.38;5009313;28;20034;-46
2023/08/02 03:36:23;;;;;;;9.35;2.75;;;;;;;20.77;70.48;99776.69;5009729;28;20057;-42
2023/08/02 03:38:48;;;;;;;8.65;2.75;;;;;;;20.52;71.35;99763.72;5009472;28;20037;-43
2023/08/02 03:41:14;;;;;;;6.25;2.50;;;;;;;20.75;70.45;99762.66;5010418;28;20030;-42
2023/08/02 03:43:39;;;;;;;9.10;2.90;;;;;;;20.51;71.39;99756.69;5012987;28;20125;-43
2023/08/02 03:46:04;;;;;;;8.77;3.00;;;;;;;20.87;70.25;99754.16;5013756;28;20057;-44
2023/08/02 03:48:31;;;;;;;10.43;2.85;;;;;;;20.64;70.84;99755.22;5013067;28;20038;-46
2023/08/02 03:50:57;;;;;;;7.25;2.60;;;;;;;20.95;69.90;99748.50;5012986;28;20034;-41
2023/08/02 03:53:23;;;;;;;7.95;2.80;;;;;;;20.94;69.89;99738.81;5013359;28;20052;-43
2023/08/02 03:55:49;;;;;;;6.75;2.55;;;;;;;20.97;69.81;99738.69;5013674;28;20057;-47
2023/08/02 03:58:14;;;;;;;6.82;2.63;;;;;;;20.80;70.38;99730.69;5014358;28;20022;-44
2023/08/02 04:00:39;;;;;;;9.93;3.60;;;;;;;20.85;70.47;99726.03;5012968;28;20037;-43
2023/08/02 04:03:05;;;;;;;10.70;4.20;;;;;;;20.45;72.01;99714.59;5013373;28;20038;-43
2023/08/02 04:05:30;;;;;;;11.15;3.78;;;;;;;20.73;70.94;99705.41;5013195;28;20030;-43
2023/08/02 04:07:55;;;;;;;11.73;4.38;;;;;;;20.70;71.26;99705.53;5012976;28;20036;-46
2023/08/02 04:10:21;;;;;;;10.77;4.57;;;;;;;20.59;71.82;99698.09;5012718;28;20100;-43
2023/08/02 04:12:46;;;;;;;10.38;4.32;;;;;;;20.55;72.70;99689.41;5013684;28;20038;-41
2023/08/02 04:15:11;;;;;;;9.60;4.43;;;;;;;20.78;71.40;99685.72;5015278;28;20034;-47
2023/08/02 04:17:37;;;;;;;10.73;4.28;;;;;;;20.47;72.63;99673.03;5013292;28;20030;-42
2023/08/02 04:20:02;;;;;;;11.27;4.18;;;;;;;20.78;71.88;99668.97;5014042;28;20034;-48
2023/08/02 04:22:31;;;;;;;9.13;3.70;;;;;;;20.64;72.56;99669.59;5013183;28;20523;-42
2023/08/02 04:24:57;;;;;;;9.02;3.72;;;;;;;20.75;72.09;99666.44;5015871;28;20044;-44
2023/08/02 04:27:22;;;;;;;12.15;4.13;;;;;;;20.17;74.76;99655.88;5015292;28;20069;-44
2023/08/02 04:29:49;;;;;;;10.18;3.67;;;;;;;20.50;73.76;99648.19;5014490;28;20040;-43
2023/08/02 04:32:14;;;;;;;8.57;3.20;;;;;;;20.36;74.56;99635.63;5013885;28;20088;-41
2023/08/02 04:34:39;;;;;;;6.95;3.30;;;;;;;19.82;76.71;99631.84;5013103;28;20038;-43
2023/08/02 04:37:05;;;;;;;6.78;2.80;;;;;;;20.25;75.25;99622.81;5012557;28;20149;-45
2023/08/02 04:39:30;;;;;;;8.23;3.20;;;;;;;19.83;76.91;99622.13;5012092;28;20034;-44
2023/08/02 04:42:00;;;;;;;6.18;3.20;;;;;;;20.42;74.94;99610.66;5012290;28;20125;-45
2023/08/02 04:44:25;;;;;;;6.75;3.03;;;;;;;20.06;76.11;99599.94;5011935;28;20049;-43
2023/08/02 04:46:51;;;;;;;8.48;3.03;;;;;;;19.74;78.38;99602.25;5011844;28;20029;-43
2023/08/02 04:49:16;;;;;;;6.72;2.72;;;;;;;19.92;77.78;99581.19;5011912;28;20232;-47
2023/08/02 04:51:41;;;;;;;7.55;2.88;;;;;;;20.24;76.63;99588.50;5011355;28;20034;-49
2023/08/02 04:54:07;;;;;;;8.98;2.90;;;;;;;20.23;76.22;99586.78;5009531;28;20420;-47
2023/08/02 04:56:32;;;;;;;7.03;2.90;;;;;;;19.72;78.19;99584.72;5011284;28;20042;-46
2023/08/02 04:58:58;;;;;;;5.10;2.65;;;;;;;19.48;79.29;99567.28;5011848;28;20469;-48
2023/08/02 05:01:23;;;;;;;5.97;2.70;;;;;;;19.78;78.92;99550.06;5011227;28;20045;-46
2023/08/02 05:03:48;;;;;;;6.20;2.40;;;;;;;19.80;79.30;99545.56;5010816;28;20044;-42
2023/08/02 05:06:13;;;;;;;4.55;2.40;;;;;;;19.97;78.26;99539.50;5011610;28;20121;-43
2023/08/02 05:08:39;;;;;;;5.38;2.72;;;;;;;19.84;78.68;99528.63;5011408;28;20046;-44
2023/08/02 05:11:05;;;;;;;6.50;2.85;;;;;;;19.82;79.24;99515.47;5011618;28;20034;-44
2023/08/02 05:13:31;;;;;;;4.85;2.70;;;;;;;20.35;77.12;99508.63;5010685;28;20492;-47
2023/08/02 05:15:56;;;;;;;6.20;2.50;;;;;;;20.18;77.31;99498.81;5011435;28;20041;-47
2023/08/02 05:18:22;;;;;;;6.80;3.05;;;;;;;19.97;78.30;99511.25;5011532;28;20415;-44
2023/08/02 05:20:48;;;;;;;5.32;2.65;;;;;;;20.22;77.39;99503.03;5010901;28;20041;-47
2023/08/02 05:23:14;;;;;;;5.82;3.13;;;;;;;20.32;77.54;99506.97;5011372;28;20061;-44
2023/08/02 05:25:40;;;;;;;6.40;2.78;;;;;;;20.29;77.15;99503.59;5010909;28;20068;-44
2023/08/02 05:28:05;;;;;;;5.50;3.03;;;;;;;20.16;77.75;99495.38;5011461;28;20034;-48
2023/08/02 05:30:31;;;;;;;6.07;3.00;;;;;;;20.11;77.85;99489.47;5010842;28;20034;-44
2023/08/02 05:32:57;;;;;;;7.10;3.13;;;;;;;20.22;77.55;99474.78;5010921;28;20033;-44
2023/08/02 05:35:25;;;;;;;5.55;2.85;;;;;;;20.00;78.30;99483.81;5011280;28;20038;-44
2023/08/02 05:37:53;;;;;;;5.63;3.00;;;;;;;19.96;79.19;99472.50;5010786;28;20041;-43
2023/08/02 05:40:19;;;;;;;6.10;2.70;;;;;;;20.02;78.12;99469.56;5010704;28;20033;-45
2023/08/02 05:42:44;;;;;;;5.00;2.65;;;;;;;19.73;79.51;99475.38;5010081;28;20049;-44
2023/08/02 05:45:10;;;;;;;7.03;2.83;;;;;;;19.66;80.49;99466.00;5010853;28;20029;-46
2023/08/02 05:47:35;;;;;;;4.35;2.85;;;;;;;19.92;79.48;99463.00;5010624;28;20695;-46
2023/08/02 05:50:01;;;;;;;4.25;2.50;;;;;;;20.41;77.43;99464.19;5011191;28;20401;-44
2023/08/02 05:52:26;;;;;;;6.68;2.75;;;;;;;19.83;79.62;99447.56;5010138;28;20048;-47
2023/08/02 05:54:51;;;;;;;6.28;2.90;;;;;;;19.90;79.72;99442.84;5010709;28;20038;-45
2023/08/02 05:57:17;;;;;;;4.65;2.78;;;;;;;20.08;78.90;99436.69;5010818;28;20088;-45
2023/08/02 05:59:42;;;;;;;5.18;2.60;;;;;;;20.26;78.43;99433.13;5009834;28;20416;-43
2023/08/02 06:02:08;;;;;;;4.80;2.47;;;;;;;20.48;77.75;99423.25;5010402;28;20030;-42
2023/08/02 06:04:38;;;;;;;4.70;2.55;;;;;;;20.32;78.40;99416.09;5009656;28;20523;-43
2023/08/02 06:07:04;;;;;;;4.05;2.30;;;;;;;20.38;78.28;99411.38;5010746;28;20188;-43
2023/08/02 06:09:29;;;;;;;4.75;2.55;;;;;;;20.13;78.88;99408.19;5010048;28;20604;-42
2023/08/02 06:11:55;;;;;;;4.25;2.10;;;;;;;20.38;77.88;99397.28;5009900;28;20034;-44
2023/08/02 06:14:21;;;;;;;5.47;2.40;;;;;;;20.39;77.99;99396.38;5010311;28;20026;-43
2023/08/02 06:16:46;;;;;;;3.90;2.20;;;;;;;20.18;78.45;99385.03;5009956;28;20049;-44
2023/08/02 06:19:12;;;;;;;4.15;2.17;;;;;;;20.00;79.50;99381.50;5010383;28;20187;-43
2023/08/02 06:21:37;;;;;;;3.28;2.00;;;;;;;20.16;79.26;99365.72;5009444;28;20514;-42
2023/08/02 06:24:02;;;;;;;4.13;2.08;;;;;;;20.38;78.13;99347.88;5009976;28;20052;-44
2023/08/02 06:26:28;;;;;;;3.40;2.20;;;;;;;19.97;79.73;99349.91;5009852;28;20037;-45
2023/08/02 06:28:54;;;;;;;3.35;2.00;;;;;;;19.95;79.95;99341.19;5010421;28;20029;-41
2023/08/02 06:31:19;;;;;;;3.47;2.00;;;;;;;19.86;80.23;99309.91;5009755;28;20084;-43
2023/08/02 06:33:45;;;;;;;4.00;1.92;;;;;;;19.92;80.35;99314.91;5009618;28;20124;-44
2023/08/02 06:36:10;;;;;;;3.50;1.70;;;;;;;19.73;81.62;99316.72;5010054;28;20029;-49
2023/08/02 06:38:35;;;;;;;3.53;1.70;;;;;;;19.81;81.36;99314.56;5009660;28;20084;-42
2023/08/02 06:41:02;;;;;;;5.40;1.90;;;;;;;20.03;80.89;99301.13;5010030;28;20033;-46
2023/08/02 06:43:27;;;;;;;2.70;1.60;;;;;;;19.96;80.91;99303.22;5009136;28;20038;-44
2023/08/02 06:45:53;;;;;;;2.92;1.70;;;;;;;20.04;81.19;99306.34;5010015;28;20117;-44
2023/08/02 06:48:22;;;;;;;2.55;1.60;;;;;;;19.81;82.39;99304.00;5010308;28;20535;-46
2023/08/02 06:50:47;;;;;;;3.72;1.70;;;;;;;19.99;81.77;99283.72;5009266;28;20040;-46
2023/08/02 06:53:13;;;;;;;2.72;1.50;;;;;;;19.92;81.67;99282.28;5008046;28;20030;-46
2023/08/02 06:55:38;;;;;;;2.53;1.40;;;;;;;19.68;82.68;99261.44;5009338;28;20072;-45
2023/08/02 06:58:04;;;;;;;2.58;1.50;;;;;;;20.06;81.51;99254.22;5010038;28;20488;-44
2023/08/02 07:00:29;;;;;;;3.95;1.42;;;;;;;20.29;80.66;99247.75;5009224;28;20042;-41
2023/08/02 07:03:01;;;;;;;2.22;1.55;;;;;;;20.32;80.91;99239.66;5009299;28;20038;-44
2023/08/02 07:05:31;;;;;;;1.83;1.20;;;;;;;20.29;80.80;99239.81;5009445;28;20037;-47
2023/08/02 07:07:57;;;;;;;1.92;1.20;;;;;;;20.06;81.87;99233.06;5010035;28;20030;-44
2023/08/02 07:10:23;;;;;;;1.67;1.20;;;;;;;19.80;83.01;99221.16;5009870;28;20408;-43
2023/08/02 07:12:49;;;;;;;1.75;1.20;;;;;;;20.07;82.22;99215.38;5008886;28;20026;-43
2023/08/02 07:15:15;;;;;;;1.70;1.15;;;;;;;20.05;82.35;99211.97;5009787;28;20041;-44
2023/08/02 07:17:41;;;;;;;1.80;0.90;;;;;;;20.07;82.17;99202.13;5012264;28;20037;-43
2023/08/02 07:20:07;;;;;;;1.77;1.08;;;;;;;19.72;83.60;99199.53;5014023;28;20042;-45
2023/08/02 07:22:32;;;;;;;1.70;1.08;;;;;;;20.28;81.40;99190.44;5012576;28;20038;-43
2023/08/02 07:24:57;;;;;;;1.48;1.20;;;;;;;20.36;81.24;99184.78;5013672;28;20120;-43
2023/08/02 07:27:23;;;;;;;1.70;1.08;;;;;;;20.54;80.32;99175.88;5014139;28;20042;-44
2023/08/02 07:29:52;;;;;;;1.77;1.02;;;;;;;20.32;81.52;99176.13;5013380;28;20042;-44
2023/08/02 07:32:18;;;;;;;1.10;0.90;;;;;;;20.22;82.41;99174.91;5013539;28;20030;-44
2023/08/02 07:34:44;;;;;;;1.40;1.00;;;;;;;19.81;83.15;99169.13;5013428;28;20069;-44
2023/08/02 07:37:09;;;;;;;3.22;1.05;;;;;;;20.05;83.01;99167.00;5014142;28;20030;-44
2023/08/02 07:39:35;;;;;;;1.30;0.98;;;;;;;20.07;82.59;99157.16;5013256;28;20492;-43
2023/08/02 07:42:00;;;;;;;1.70;0.90;;;;;;;20.32;81.94;99154.97;5013417;28;20069;-42
2023/08/02 07:44:25;;;;;;;0.90;0.80;;;;;;;20.29;81.74;99163.06;5013831;28;20034;-45
2023/08/02 07:46:51;;;;;;;0.82;0.80;;;;;;;20.17;82.56;99153.13;5012996;28;20516;-44
2023/08/02 07:49:17;;;;;;;1.35;0.80;;;;;;;19.99;83.65;99154.09;5014615;28;20037;-43
2023/08/02 07:51:42;;;;;;;1.10;0.75;;;;;;;19.98;83.50;99142.66;5014062;28;20037;-43
2023/08/02 07:54:07;;;;;;;0.73;0.70;;;;;;;20.15;83.90;99139.09;5014290;28;20404;-44
2023/08/02 07:56:33;;;;;;;1.15;0.70;;;;;;;19.91;84.83;99124.53;5014248;28;20385;-42
2023/08/02 07:58:58;;;;;;;0.90;0.60;;;;;;;20.52;81.92;99130.06;5015001;28;20053;-45
2023/08/02 08:01:23;;;;;;;0.63;0.60;;;;;;;20.76;80.53;99146.41;5014323;28;20041;-42
2023/08/02 08:03:49;;;;;;;0.88;0.60;;;;;;;20.98;79.60;99144.28;5013682;28;20034;-42
2023/08/02 08:06:15;;;;;;;0.55;0.50;;;;;;;21.15;78.82;99136.25;5013070;28;20133;-45
2023/08/02 08:08:42;;;;;;;0.60;0.60;;;;;;;21.14;79.04;99129.22;5012852;28;20452;-42
2023/08/02 08:11:08;;;;;;;0.63;0.50;;;;;;;21.13;79.82;99121.34;5014350;28;20331;-45
2023/08/02 08:13:34;;;;;;;0.65;0.50;;;;;;;21.11;79.90;99121.41;5013714;28;20049;-43
2023/08/02 08:16:00;;;;;;;0.70;0.63;;;;;;;21.28;79.05;99117.84;5014621;28;20454;-43
2023/08/02 08:18:26;;;;;;;0.98;0.70;;;;;;;21.16;79.60;99110.59;5014174;28;20062;-46
2023/08/02 08:20:52;;;;;;;0.93;0.60;;;;;;;20.93;80.81;99095.97;5012126;28;20030;-43
2023/08/02 08:23:17;;;;;;;0.80;0.60;;;;;;;21.22;80.92;99094.34;5011962;28;20034;-44
2023/08/02 08:25:42;;;;;;;1.20;0.50;;;;;;;21.63;79.51;99095.41;5012165;28;20207;-43
2023/08/02 08:28:08;;;;;;;0.77;0.60;;;;;;;21.83;78.96;99080.94;5012394;28;20172;-44
2023/08/02 08:30:33;;;;;;;0.75;0.70;;;;;;;22.17;78.81;99093.00;5012012;28;20041;-43
2023/08/02 08:32:59;;;;;;;0.65;0.60;;;;;;;22.08;79.39;99078.50;5011810;28;20032;-43
2023/08/02 08:35:24;;;;;;;0.75;0.60;;;;;;;22.43;78.44;99081.63;5012182;28;20041;-43
2023/08/02 08:37:52;;;;;;;1.58;0.65;;;;;;;22.53;78.20;99074.75;5011699;28;20164;-43
2023/08/02 08:40:18;;;;;;;1.00;0.65;;;;;;;23.02;78.26;99066.28;5012168;28;20054;-45
2023/08/02 08:42:51;;;;;;;0.70;0.60;;;;;;;23.16;75.25;99066.22;5011120;28;20459;-45
2023/08/02 08:45:19;;;;;;;1.47;0.70;;;;;;;22.23;76.20;99069.59;5012279;28;20480;-43
2023/08/02 08:47:45;;;;;;;0.95;0.70;;;;;;;22.77;75.71;99064.38;5011645;28;20030;-49
2023/08/02 08:50:10;;;;;;;1.45;0.90;;;;;;;22.79;75.85;99062.50;5011839;28;20392;-45
2023/08/02 08:52:36;;;;;;;0.90;0.80;;;;;;;22.89;76.15;99058.25;5011048;28;20116;-42
2023/08/02 08:55:04;;;;;;;1.35;0.80;;;;;;;22.96;74.90;99058.72;5011990;28;20080;-43
2023/08/02 08:57:32;;;;;;;0.80;0.80;;;;;;;22.79;75.09;99062.50;5011713;28;20041;-43
2023/08/02 08:59:57;;;;;;;1.10;0.90;;;;;;;22.86;75.49;99053.16;5012279;28;20041;-43
2023/08/02 09:02:23;;;;;;;1.55;1.10;;;;;;;22.80;75.52;99053.56;5011905;28;20453;-46
2023/08/02 09:04:51;;;;;;;1.90;1.10;;;;;;;22.59;75.85;99052.25;5011693;28;20292;-42
2023/08/02 09:07:16;;;;;;;1.20;1.02;;;;;;;22.64;76.39;99058.13;5011898;28;20038;-43
2023/08/02 09:09:42;;;;;;;1.35;1.10;;;;;;;22.94;75.59;99044.66;5011216;28;20091;-45
2023/08/02 09:12:07;;;;;;;1.50;1.10;;;;;;;22.83;76.67;99044.53;5010141;28;20172;-45
2023/08/02 09:14:33;;;;;;;2.45;1.20;;;;;;;22.80;77.91;99042.94;5011003;28;20048;-43
2023/08/02 09:16:59;;;;;;;1.38;1.20;;;;;;;23.04;77.45;99051.09;5011683;28;20057;-45
2023/08/02 09:19:32;;;;;;;1.58;1.10;;;;;;;23.52;76.49;99039.00;5011587;28;20037;-44
2023/08/02 09:22:11;;;;;;;1.52;1.00;;;;;;;23.80;74.54;99028.13;5011018;28;20037;-45
2023/08/02 09:24:38;;;;;;;1.75;1.10;;;;;;;24.12;75.13;99017.88;5010713;28;20457;-43
2023/08/02 09:27:05;;;;;;;1.45;1.20;;;;;;;23.89;74.62;99025.78;5011667;28;20040;-42
2023/08/02 09:29:48;;;;;;;2.38;1.20;;;;;;;24.07;73.69;99016.50;5011089;28;20046;-46
2023/08/02 09:32:14;;;;;;;1.83;1.10;;;;;;;24.36;73.35;99017.09;5010962;28;20037;-47
2023/08/02 09:34:45;;;;;;;1.85;1.10;;;;;;;24.38;72.63;99016.03;5010960;28;20400;-44
2023/08/02 09:37:12;;;;;;;2.08;0.98;;;;;;;23.96;73.83;99019.06;5011714;28;20046;-44
2023/08/02 09:39:38;;;;;;;4.50;0.95;;;;;;;23.84;71.63;99024.31;5010097;28;20463;-46
2023/08/02 09:42:14;;;;;;;2.45;1.08;;;;;;;24.07;71.96;99035.13;5011374;28;20404;-45
2023/08/02 09:44:41;;;;;;;2.38;1.00;;;;;;;23.91;73.57;99045.16;5011347;28;20065;-42
2023/08/02 09:47:11;;;;;;;1.83;0.82;;;;;;;24.09;73.10;99041.22;5013481;28;20530;-44
2023/08/02 09:49:37;;;;;;;3.63;1.20;;;;;;;23.97;74.27;99044.75;5011282;28;20038;-44
2023/08/02 09:52:02;;;;;;;3.75;1.10;;;;;;;24.19;72.41;99035.16;5010558;28;20041;-43
2023/08/02 09:54:29;;;;;;;4.35;1.13;;;;;;;24.08;71.62;99039.50;5010240;28;20037;-46
2023/08/02 09:56:55;;;;;;;5.45;1.30;;;;;;;24.44;70.58;99038.69;5010885;28;20034;-47
2023/08/02 09:59:21;;;;;;;8.32;1.70;;;;;;;24.05;72.43;99043.22;5010746;28;20150;-43
2023/08/02 10:01:48;;;;;;;5.10;1.40;;;;;;;24.24;71.78;99029.47;5008813;28;20083;-43
2023/08/02 10:04:15;;;;;;;9.05;1.60;;;;;;;23.81;72.25;99034.28;5010516;28;20042;-45
2023/08/02 10:06:47;;;;;;;5.72;1.38;;;;;;;24.09;71.60;99035.88;5010418;28;20164;-43
2023/08/02 10:09:18;;;;;;;4.78;1.40;;;;;;;24.60;69.63;99021.47;5010573;28;20037;-44
2023/08/02 10:12:02;;;;;;;5.90;1.55;;;;;;;24.53;69.37;99003.38;5010086;28;20149;-44
2023/08/02 10:14:30;;;;;;;4.95;1.55;;;;;;;24.55;69.30;99012.13;5010208;28;20072;-44
2023/08/02 10:16:58;;;;;;;8.13;1.67;;;;;;;24.77;69.21;99004.25;5010828;28;20042;-44
2023/08/02 10:19:24;;;;;;;6.53;1.60;;;;;;;25.00;68.89;98995.44;5010375;28;20408;-44
2023/08/02 10:21:51;;;;;;;5.38;1.33;;;;;;;24.06;69.37;99004.13;5008297;28;20030;-43
2023/08/02 10:24:16;;;;;;;7.28;1.90;;;;;;;24.45;70.24;99003.97;5010077;28;20026;-43
2023/08/02 10:26:42;;;;;;;7.38;1.60;;;;;;;24.65;68.37;99005.16;5009883;28;20041;-43
2023/08/02 10:29:09;;;;;;;8.57;1.58;;;;;;;24.82;67.48;98998.59;5010425;28;20029;-43
2023/08/02 10:31:35;;;;;;;10.25;1.88;;;;;;;24.93;65.88;98996.00;5009870;28;20037;-43
2023/08/02 10:34:00;;;;;;;7.35;1.70;;;;;;;24.78;67.04;99000.63;5009913;28;20503;-43
2023/08/02 10:36:25;;;;;;;7.65;1.48;;;;;;;24.93;65.45;99004.84;5010002;28;20044;-46
2023/08/02 10:38:54;;;;;;;5.65;1.42;;;;;;;24.56;63.45;98988.03;5010856;28;20030;-47
2023/08/02 10:41:25;;;;;;;5.00;1.30;;;;;;;24.30;64.88;98981.09;5010271;28;20026;-44
2023/08/02 10:43:53;;;;;;;5.20;1.40;;;;;;;24.44;65.51;98970.31;5009517;28;20042;-44
2023/08/02 10:46:27;;;;;;;7.85;1.40;;;;;;;23.98;63.70;98964.75;5010168;28;20034;-44
2023/08/02 10:48:54;;;;;;;5.25;1.40;;;;;;;24.20;61.50;98958.78;5011976;28;20030;-44
2023/08/02 10:51:39;;;;;;;4.20;1.17;;;;;;;24.48;61.42;98957.59;5011588;28;20034;-44
2023/08/02 10:54:25;;;;;;;5.18;1.00;;;;;;;23.84;62.62;98952.47;5009790;28;20033;-42
2023/08/02 10:56:51;;;;;;;6.15;1.05;;;;;;;23.76;64.92;98954.81;5009647;28;20045;-43
2023/08/02 10:59:22;;;;;;;5.72;1.30;;;;;;;23.95;62.69;98967.66;5008501;28;20443;-43
2023/08/02 11:02:00;;;;;;;6.20;1.27;;;;;;;23.98;61.74;98971.88;5009053;28;20033;-40
2023/08/02 11:04:27;;;;;;;6.53;1.17;;;;;;;23.84;61.46;98980.88;4997723;28;20052;-40
2023/08/02 11:06:52;;;;;;;7.88;1.33;;;;;;;23.98;62.50;98970.06;5008030;28;20026;-45
2023/08/02 11:09:32;;;;;;;9.25;1.60;;;;;;;24.25;63.27;98972.59;5009267;28;20034;-45
2023/08/02 11:12:08;;;;;;;9.57;1.55;;;;;;;24.28;61.79;98967.03;5022655;28;20029;-43
2023/08/02 11:14:33;;;;;;;12.27;1.88;;;;;;;24.23;60.98;98964.72;5028359;28;20045;-45
2023/08/02 11:16:59;;;;;;;9.73;1.70;;;;;;;24.38;63.21;98957.44;5027440;28;20041;-42
2023/08/02 11:19:28;;;;;;;6.90;1.67;;;;;;;24.52;62.33;98962.56;5028913;28;20030;-44
2023/08/02 11:21:55;;;;;;;12.38;1.75;;;;;;;24.43;62.42;98957.94;5027570;28;20128;-45
2023/08/02 11:24:21;;;;;;;9.02;1.55;;;;;;;24.68;60.32;98962.31;5011341;28;20039;-46
2023/08/02 11:26:57;;;;;;;8.60;1.20;;;;;;;24.88;58.20;98960.81;5028279;28;20049;-43
2023/08/02 11:29:23;;;;;;;7.43;1.45;;;;;;;24.55;60.96;98954.38;5028665;28;20099;-43